Time;durP1;ratioP1;P1;durP2;ratioP2;P2;SDS_P1;SDS_P2;PMS_P1;PMS_P2;Temp;Humidity;BMP_temperature;BMP_pressure;BME280_temperature;BME280_humidity;BME280_pressure;Samples;Min_cycle;Max_cycle;Signal;HPM_P1;HPM_P2
2021/04/17 00:00:13;;;;;;;;;;;;;;;9.05;46.39;102682.09;5033328;28;19963;-73
2021/04/17 00:02:38;;;;;;;;;;;;;;;9.05;46.48;102677.47;5050884;28;19913;-73
2021/04/17 00:05:04;;;;;;;;;;;;;;;9.08;46.31;102681.66;5050721;28;19951;-73
2021/04/17 00:07:30;;;;;;;;;;;;;;;9.10;46.29;102679.56;5049679;28;19939;-73
2021/04/17 00:09:55;;;;;;;;;;;;;;;9.12;46.19;102685.63;5046239;28;19921;-73
2021/04/17 00:12:20;;;;;;;;;;;;;;;9.13;46.15;102670.97;5048678;28;19999;-72
2021/04/17 00:14:46;;;;;;;;;;;;;;;9.15;46.27;102677.03;5049783;28;20409;-73
2021/04/17 00:17:12;;;;;;;;;;;;;;;9.17;46.06;102674.09;5031380;28;20354;-73
2021/04/17 00:19:37;;;;;;;;;;;;;;;9.18;46.24;102675.75;5045744;28;19920;-72
2021/04/17 00:22:03;;;;;;;;;;;;;;;9.20;45.81;102673.66;5036909;28;19920;-73
2021/04/17 00:24:28;;;;;;;;;;;;;;;9.20;45.99;102677.22;5039636;28;20392;-72
2021/04/17 00:26:53;;;;;;;;;;;;;;;9.21;46.37;102669.88;5048690;28;19999;-73
2021/04/17 00:29:18;;;;;;;;;;;;;;;9.19;46.13;102666.53;5042811;28;19919;-72
2021/04/17 00:31:44;;;;;;;;;;;;;;;9.17;46.44;102669.47;5045103;28;20002;-72
2021/04/17 00:34:09;;;;;;;;;;;;;;;9.16;46.39;102666.97;5044782;28;19936;-73
2021/04/17 00:36:35;;;;;;;;;;;;;;;9.16;46.28;102666.97;5042930;28;19920;-72
2021/04/17 00:39:00;;;;;;;;;;;;;;;9.16;46.15;102666.97;5045852;28;19948;-73
2021/04/17 00:41:25;;;;;;;;;;;;;;;9.15;46.53;102666.13;5048214;28;20155;-73
2021/04/17 00:43:51;;;;;;;;;;;;;;;9.14;46.32;102656.31;5045150;28;19920;-73
2021/04/17 00:46:16;;;;;;;;;;;;;;;9.15;46.63;102655.25;5080053;28;19924;-72
2021/04/17 00:48:41;;;;;;;;;;;;;;;9.14;46.55;102659.03;5083658;28;19924;-73
2021/04/17 00:51:06;;;;;;;;;;;;;;;9.13;46.85;102651.06;5035300;28;19917;-72
2021/04/17 00:53:32;;;;;;;;;;;;;;;9.11;46.63;102659.44;5039255;28;20267;-72
2021/04/17 00:55:57;;;;;;;;;;;;;;;9.10;46.77;102652.34;5076460;28;19912;-73
2021/04/17 00:58:22;;;;;;;;;;;;;;;9.08;47.21;102649.00;5073713;28;19908;-72
2021/04/17 01:00:47;;;;;;;;;;;;;;;9.06;47.23;102646.50;5042194;28;20370;-72
2021/04/17 01:03:13;;;;;;;;;;;;;;;9.05;47.00;102649.44;5077875;28;19908;-73
2021/04/17 01:05:38;;;;;;;;;;;;;;;9.02;47.29;102649.88;5050597;28;19912;-73
2021/04/17 01:08:03;;;;;;;;;;;;;;;8.99;47.26;102656.59;5049779;28;19962;-72
2021/04/17 01:10:34;;;;;;;;;;;;;;;8.94;47.81;102659.13;5070730;28;19924;-72
2021/04/17 01:12:59;;;;;;;;;;;;;;;8.89;48.18;102656.22;5076192;28;19912;-73
2021/04/17 01:15:25;;;;;;;;;;;;;;;8.84;48.14;102658.78;5083908;28;20427;-74
2021/04/17 01:17:52;;;;;;;;;;;;;;;8.80;48.58;102660.25;5045764;28;19988;-73
2021/04/17 01:20:26;;;;;;;;;;;;;;;8.77;48.43;102653.34;5041294;28;19978;-73
2021/04/17 01:23:15;;;;;;;;;;;;;;;8.74;48.72;102656.50;5049388;28;20038;-72
2021/04/17 01:25:47;;;;;;;;;;;;;;;8.70;48.89;102657.97;5044925;28;19920;-72
2021/04/17 01:28:13;;;;;;;;;;;;;;;8.69;48.83;102656.31;5041332;28;20480;-72
2021/04/17 01:30:38;;;;;;;;;;;;;;;8.69;49.19;102653.59;5033780;28;19967;-73
2021/04/17 01:33:03;;;;;;;;;;;;;;;8.67;49.49;102658.41;5046140;28;20448;-72
2021/04/17 01:35:28;;;;;;;;;;;;;;;8.65;49.68;102655.09;5049986;28;19909;-73
2021/04/17 01:37:54;;;;;;;;;;;;;;;8.64;49.51;102659.66;5080711;28;20011;-72
2021/04/17 01:40:25;;;;;;;;;;;;;;;8.63;49.93;102654.44;5053508;28;19913;-72
2021/04/17 01:42:51;;;;;;;;;;;;;;;8.59;50.10;102662.22;5044201;28;19913;-72
2021/04/17 01:45:17;;;;;;;;;;;;;;;8.59;50.06;102672.22;5086319;28;19929;-72
2021/04/17 01:47:42;;;;;;;;;;;;;;;8.57;49.83;102663.47;5048943;28;19924;-72
2021/04/17 01:50:07;;;;;;;;;;;;;;;8.57;49.79;102664.31;5077951;28;19959;-72
2021/04/17 01:52:33;;;;;;;;;;;;;;;8.56;50.02;102665.34;5053343;28;19912;-73
2021/04/17 01:54:58;;;;;;;;;;;;;;;8.55;50.04;102668.28;5043707;28;19932;-72
2021/04/17 01:57:24;;;;;;;;;;;;;;;8.54;50.03;102666.59;5079056;28;19935;-73
2021/04/17 01:59:49;;;;;;;;;;;;;;;8.52;49.92;102661.41;5049011;28;19916;-72
2021/04/17 02:02:14;;;;;;;;;;;;;;;8.52;50.04;102660.56;5051508;28;20003;-73
2021/04/17 02:04:40;;;;;;;;;;;;;;;8.50;50.44;102657.22;5046599;28;19921;-72
2021/04/17 02:07:05;;;;;;;;;;;;;;;8.48;50.51;102664.75;5048012;28;19917;-72
2021/04/17 02:09:30;;;;;;;;;;;;;;;8.48;50.25;102667.47;5083272;28;19913;-72
2021/04/17 02:11:55;;;;;;;;;;;;;;;8.48;50.66;102662.03;5047343;28;19921;-71
2021/04/17 02:14:20;;;;;;;;;;;;;;;8.49;50.57;102661.00;5048721;28;19913;-73
2021/04/17 02:16:46;;;;;;;;;;;;;;;8.50;50.32;102657.22;5040599;28;19927;-72
2021/04/17 02:19:17;;;;;;;;;;;;;;;8.51;50.16;102653.44;5045893;28;20286;-71
2021/04/17 02:21:43;;;;;;;;;;;;;;;8.53;50.12;102662.22;5073017;28;19913;-73
2021/04/17 02:24:08;;;;;;;;;;;;;;;8.53;49.94;102660.34;5048644;28;19919;-72
2021/04/17 02:26:33;;;;;;;;;;;;;;;8.53;50.27;102651.34;5039958;28;20015;-72
2021/04/17 02:28:58;;;;;;;;;;;;;;;8.54;50.25;102647.56;5083174;28;20388;-72
2021/04/17 02:31:24;;;;;;;;;;;;;;;8.54;50.11;102645.72;5045228;28;19924;-72
2021/04/17 02:33:49;;;;;;;;;;;;;;;8.55;50.12;102654.69;5038541;28;19962;-72
2021/04/17 02:36:15;;;;;;;;;;;;;;;8.55;50.03;102657.41;5086012;28;19975;-72
2021/04/17 02:38:40;;;;;;;;;;;;;;;8.55;50.03;102654.69;5085536;28;19909;-73
2021/04/17 02:41:05;;;;;;;;;;;;;;;8.54;49.94;102647.56;5052348;28;19919;-72
2021/04/17 02:43:30;;;;;;;;;;;;;;;8.53;49.61;102644.03;5038377;28;20011;-73
2021/04/17 02:45:56;;;;;;;;;;;;;;;8.54;49.71;102642.13;5081635;28;20297;-73
2021/04/17 02:48:21;;;;;;;;;;;;;;;8.53;49.82;102640.47;5041783;28;19925;-73
2021/04/17 02:50:46;;;;;;;;;;;;;;;8.51;49.61;102631.69;5041721;28;19978;-73
2021/04/17 02:53:11;;;;;;;;;;;;;;;8.49;49.78;102628.38;5047783;28;19955;-72
2021/04/17 02:55:37;;;;;;;;;;;;;;;8.49;50.09;102628.38;5048524;28;20378;-72
2021/04/17 02:58:02;;;;;;;;;;;;;;;8.47;49.78;102631.28;5047365;28;19913;-72
2021/04/17 03:00:27;;;;;;;;;;;;;;;8.47;50.05;102630.47;5042489;28;19913;-72
2021/04/17 03:02:52;;;;;;;;;;;;;;;8.48;50.18;102637.56;5044158;28;20445;-72
2021/04/17 03:05:18;;;;;;;;;;;;;;;8.46;49.96;102629.63;5048443;28;19927;-72
2021/04/17 03:07:43;;;;;;;;;;;;;;;8.45;49.86;102634.22;5084420;28;19912;-73
2021/04/17 03:10:09;;;;;;;;;;;;;;;8.44;50.18;102627.13;5048810;28;20031;-72
2021/04/17 03:12:34;;;;;;;;;;;;;;;8.43;49.96;102630.91;5043168;28;20011;-72
2021/04/17 03:15:00;;;;;;;;;;;;;;;8.42;50.11;102623.78;5083004;28;19920;-73
2021/04/17 03:17:25;;;;;;;;;;;;;;;8.42;49.84;102618.34;5043512;28;20362;-73
2021/04/17 03:19:50;;;;;;;;;;;;;;;8.41;50.09;102616.69;5049328;28;19938;-73
2021/04/17 03:22:15;;;;;;;;;;;;;;;8.41;50.19;102616.69;5038529;28;20325;-72
2021/04/17 03:24:41;;;;;;;;;;;;;;;8.41;50.01;102613.97;5049679;28;19962;-72
2021/04/17 03:27:06;;;;;;;;;;;;;;;8.42;50.11;102618.34;5050505;28;19917;-73
2021/04/17 03:29:32;;;;;;;;;;;;;;;8.42;49.82;102622.94;5083684;28;20434;-72
2021/04/17 03:31:57;;;;;;;;;;;;;;;8.41;49.92;102616.69;5049094;28;19932;-71
2021/04/17 03:34:22;;;;;;;;;;;;;;;8.40;49.87;102623.19;5049642;28;20301;-72
2021/04/17 03:36:47;;;;;;;;;;;;;;;8.40;49.96;102628.59;5048824;28;19912;-72
2021/04/17 03:39:13;;;;;;;;;;;;;;;8.38;50.26;102627.94;5049121;28;19913;-73
2021/04/17 03:41:38;;;;;;;;;;;;;;;8.36;50.22;102632.75;5050330;28;20007;-72
2021/04/17 03:44:04;;;;;;;;;;;;;;;8.35;50.47;102627.56;5050986;28;20378;-73
2021/04/17 03:46:29;;;;;;;;;;;;;;;8.32;50.42;102623.38;5078565;28;19920;-72
2021/04/17 03:48:54;;;;;;;;;;;;;;;8.30;50.29;102630.91;5050735;28;20322;-71
2021/04/17 03:51:19;;;;;;;;;;;;;;;8.26;50.50;102628.81;5079734;28;19917;-72
2021/04/17 03:53:45;;;;;;;;;;;;;;;8.24;50.67;102631.75;5049815;28;19913;-72
2021/04/17 03:56:10;;;;;;;;;;;;;;;8.21;50.86;102640.31;5050784;28;20340;-72
2021/04/17 03:58:35;;;;;;;;;;;;;;;8.16;50.64;102629.28;5049765;28;19913;-72
2021/04/17 04:01:00;;;;;;;;;;;;;;;8.14;50.69;102636.78;5047479;28;19920;-72
2021/04/17 04:03:26;;;;;;;;;;;;;;;8.09;51.14;102633.88;5048020;28;19917;-72
2021/04/17 04:05:51;;;;;;;;;;;;;;;8.06;51.22;102631.59;5045835;28;20396;-72
2021/04/17 04:08:16;;;;;;;;;;;;;;;8.03;50.83;102630.13;5047856;28;19916;-72
2021/04/17 04:10:41;;;;;;;;;;;;;;;8.00;51.31;102639.53;5042330;28;20281;-73
2021/04/17 04:13:06;;;;;;;;;;;;;;;7.97;51.31;102629.09;5050057;28;20053;-72
2021/04/17 04:15:32;;;;;;;;;;;;;;;7.95;51.15;102633.06;5050663;28;20003;-73
2021/04/17 04:17:57;;;;;;;;;;;;;;;7.93;51.29;102638.69;5048801;28;19939;-73
2021/04/17 04:20:22;;;;;;;;;;;;;;;7.93;51.25;102635.97;5046827;28;19919;-73
2021/04/17 04:22:48;;;;;;;;;;;;;;;7.92;51.10;102634.31;5038690;28;19935;-72
2021/04/17 04:25:13;;;;;;;;;;;;;;;7.90;51.00;102636.41;5047686;28;19964;-73
2021/04/17 04:27:38;;;;;;;;;;;;;;;7.88;51.28;102632.22;5044808;28;20023;-72
2021/04/17 04:30:04;;;;;;;;;;;;;;;7.89;50.88;102631.19;5049830;28;19917;-73
2021/04/17 04:32:30;;;;;;;;;;;;;;;7.89;50.98;102625.75;5030156;28;19913;-72
2021/04/17 04:34:55;;;;;;;;;;;;;;;7.88;51.04;102627.63;5050648;28;19913;-73
2021/04/17 04:37:20;;;;;;;;;;;;;;;7.88;51.13;102632.22;5051299;28;20004;-72
2021/04/17 04:39:45;;;;;;;;;;;;;;;7.87;50.88;102630.56;5050459;28;19921;-73
2021/04/17 04:42:11;;;;;;;;;;;;;;;7.87;50.81;102625.97;5050701;28;20003;-73
2021/04/17 04:44:36;;;;;;;;;;;;;;;7.88;50.83;102634.94;5084325;28;19913;-73
2021/04/17 04:47:01;;;;;;;;;;;;;;;7.88;50.86;102637.66;5051086;28;19912;-72
2021/04/17 04:49:27;;;;;;;;;;;;;;;7.85;50.95;102638.91;5051540;28;20339;-73
2021/04/17 04:51:52;;;;;;;;;;;;;;;7.84;50.82;102620.94;5050955;28;19917;-73
2021/04/17 04:54:17;;;;;;;;;;;;;;;7.83;51.20;102638.31;5049449;28;20305;-73
2021/04/17 04:56:42;;;;;;;;;;;;;;;7.80;51.20;102641.41;5050958;28;19909;-73
2021/04/17 04:59:08;;;;;;;;;;;;;;;7.76;51.05;102641.00;5050416;28;19935;-72
2021/04/17 05:01:33;;;;;;;;;;;;;;;7.72;51.00;102631.63;5051443;28;19913;-73
2021/04/17 05:03:58;;;;;;;;;;;;;;;7.68;51.21;102633.06;5049799;28;19920;-72
2021/04/17 05:06:23;;;;;;;;;;;;;;;7.67;51.18;102636.00;5049674;28;19908;-73
2021/04/17 05:08:48;;;;;;;;;;;;;;;7.69;51.34;102642.03;5039838;28;19917;-73
2021/04/17 05:11:14;;;;;;;;;;;;;;;7.71;51.53;102639.97;5048794;28;20014;-73
2021/04/17 05:13:39;;;;;;;;;;;;;;;7.73;51.66;102651.44;5045156;28;21715;-73
2021/04/17 05:16:04;;;;;;;;;;;;;;;7.74;51.52;102642.25;5054401;28;19908;-73
2021/04/17 05:18:30;;;;;;;;;;;;;;;7.72;51.52;102645.19;5050028;28;20007;-73
2021/04/17 05:20:55;;;;;;;;;;;;;;;7.68;51.39;102648.53;5054141;28;19958;-72
2021/04/17 05:23:20;;;;;;;;;;;;;;;7.64;51.29;102642.69;5049541;28;20010;-73
2021/04/17 05:25:45;;;;;;;;;;;;;;;7.60;51.90;102646.84;5051076;28;19912;-72
2021/04/17 05:28:11;;;;;;;;;;;;;;;7.59;51.75;102642.47;5054224;28;19935;-72
2021/04/17 05:30:37;;;;;;;;;;;;;;;7.59;51.86;102641.66;5046942;28;19921;-73
2021/04/17 05:33:02;;;;;;;;;;;;;;;7.56;52.06;102646.44;5081883;28;19913;-73
2021/04/17 05:35:27;;;;;;;;;;;;;;;7.55;51.99;102635.78;5082951;28;19917;-72
2021/04/17 05:37:52;;;;;;;;;;;;;;;7.57;51.81;102636.41;5048487;28;20428;-73
2021/04/17 05:40:18;;;;;;;;;;;;;;;7.56;51.82;102641.00;5051799;28;19956;-73
2021/04/17 05:42:43;;;;;;;;;;;;;;;7.56;52.06;102629.31;5038101;28;20321;-73
2021/04/17 05:45:08;;;;;;;;;;;;;;;7.60;52.07;102629.72;5053065;28;19970;-72
2021/04/17 05:47:33;;;;;;;;;;;;;;;7.64;51.82;102631.81;5037064;28;19921;-72
2021/04/17 05:49:59;;;;;;;;;;;;;;;7.67;51.98;102630.56;5086326;28;19920;-73
2021/04/17 05:52:24;;;;;;;;;;;;;;;7.66;51.94;102627.00;5083911;28;19920;-73
2021/04/17 05:54:49;;;;;;;;;;;;;;;7.63;51.90;102638.28;5079529;28;19913;-73
2021/04/17 05:57:14;;;;;;;;;;;;;;;7.60;51.96;102638.69;5040075;28;20011;-73
2021/04/17 05:59:40;;;;;;;;;;;;;;;7.55;51.92;102627.63;5052599;28;20238;-72
2021/04/17 06:02:06;;;;;;;;;;;;;;;7.49;51.92;102629.31;5049673;28;19916;-72
2021/04/17 06:04:31;;;;;;;;;;;;;;;7.45;51.94;102628.06;5038424;28;20046;-72
2021/04/17 06:06:57;;;;;;;;;;;;;;;7.41;52.32;102632.22;5048313;28;20006;-73
2021/04/17 06:09:22;;;;;;;;;;;;;;;7.38;52.23;102637.22;5043261;28;19913;-73
2021/04/17 06:11:47;;;;;;;;;;;;;;;7.37;52.57;102630.97;5037087;28;20370;-72
2021/04/17 06:14:12;;;;;;;;;;;;;;;7.38;52.45;102632.63;5035066;28;19916;-72
2021/04/17 06:16:38;;;;;;;;;;;;;;;7.36;52.29;102632.00;5048816;28;20375;-72
2021/04/17 06:19:03;;;;;;;;;;;;;;;7.37;52.52;102630.97;5074548;28;19908;-73
2021/04/17 06:21:28;;;;;;;;;;;;;;;7.35;52.25;102630.34;5047216;28;19913;-73
2021/04/17 06:23:53;;;;;;;;;;;;;;;7.36;52.09;102629.28;5049026;28;19962;-73
2021/04/17 06:26:19;;;;;;;;;;;;;;;7.34;52.47;102625.97;5044490;28;19944;-73
2021/04/17 06:28:44;;;;;;;;;;;;;;;7.36;52.48;102626.56;5049924;28;19917;-72
2021/04/17 06:31:10;;;;;;;;;;;;;;;7.42;52.47;102628.47;5052527;28;19917;-72
2021/04/17 06:33:35;;;;;;;;;;;;;;;7.45;52.36;102632.66;5048818;28;19959;-72
2021/04/17 06:36:03;;;;;;;;;;;;;;;7.48;52.29;102629.53;5051301;28;19939;-73
2021/04/17 06:38:28;;;;;;;;;;;;;;;7.55;52.29;102627.63;5051481;28;19909;-73
2021/04/17 06:40:54;;;;;;;;;;;;;;;7.57;52.27;102629.09;5054539;28;19927;-72
2021/04/17 06:43:22;;;;;;;;;;;;;;;7.63;52.33;102624.72;5046250;28;20230;-71
2021/04/17 06:45:47;;;;;;;;;;;;;;;7.69;52.35;102623.91;5048927;28;19917;-73
2021/04/17 06:48:12;;;;;;;;;;;;;;;7.77;52.11;102620.97;5076189;28;19916;-73
2021/04/17 06:50:38;;;;;;;;;;;;;;;7.85;51.83;102628.03;5052255;28;19916;-73
2021/04/17 06:53:10;;;;;;;;;;;;;;;7.93;51.75;102622.38;5047882;28;20390;-74
2021/04/17 06:55:35;;;;;;;;;;;;;;;8.02;51.85;102628.47;5051233;28;20323;-73
2021/04/17 06:58:00;;;;;;;;;;;;;;;8.15;51.88;102628.41;5082565;28;20016;-72
2021/04/17 07:00:26;;;;;;;;;;;;;;;8.28;51.66;102621.28;5051088;28;19959;-73
2021/04/17 07:02:51;;;;;;;;;;;;;;;8.31;51.60;102621.69;5051117;28;19913;-74
2021/04/17 07:05:16;;;;;;;;;;;;;;;8.34;51.36;102623.97;5034134;28;20015;-73
2021/04/17 07:07:41;;;;;;;;;;;;;;;8.44;51.54;102621.69;5050116;28;19920;-73
2021/04/17 07:10:07;;;;;;;;;;;;;;;8.51;51.31;102621.69;5039973;28;20381;-73
2021/04/17 07:12:32;;;;;;;;;;;;;;;8.58;51.16;102617.03;5044021;28;19920;-73
2021/04/17 07:14:57;;;;;;;;;;;;;;;8.69;50.96;102625.56;5036792;28;19912;-73
2021/04/17 07:17:23;;;;;;;;;;;;;;;8.81;51.21;102629.25;5072661;28;19921;-73
2021/04/17 07:19:48;;;;;;;;;;;;;;;8.88;51.13;102628.19;5043898;28;19921;-73
2021/04/17 07:22:20;;;;;;;;;;;;;;;8.95;51.04;102633.59;5045148;28;19920;-73
2021/04/17 07:24:46;;;;;;;;;;;;;;;8.99;50.62;102618.50;5046430;28;19936;-73
2021/04/17 07:27:28;;;;;;;;;;;;;;;9.03;50.71;102635.22;5049417;28;20381;-73
2021/04/17 07:29:54;;;;;;;;;;;;;;;9.00;50.91;102625.63;5045783;28;19913;-73
2021/04/17 07:32:19;;;;;;;;;;;;;;;9.01;50.63;102623.72;5081449;28;19917;-73
2021/04/17 07:35:03;;;;;;;;;;;;;;;9.01;50.58;102623.72;5050519;28;20007;-73
2021/04/17 07:37:28;;;;;;;;;;;;;;;9.03;50.55;102627.91;5043686;28;20408;-73
2021/04/17 07:39:53;;;;;;;;;;;;;;;9.08;50.83;102625.38;5051096;28;20374;-73
2021/04/17 07:42:18;;;;;;;;;;;;;;;9.18;50.54;102618.59;5044222;28;19938;-73
2021/04/17 07:44:44;;;;;;;;;;;;;;;9.23;50.60;102618.78;5049174;28;19913;-73
2021/04/17 07:47:10;;;;;;;;;;;;;;;9.33;50.30;102625.41;5050720;28;19924;-73
2021/04/17 07:49:36;;;;;;;;;;;;;;;9.53;50.31;102629.88;5081789;28;19917;-73
2021/04/17 07:52:11;;;;;;;;;;;;;;;9.72;50.00;102625.31;5050542;28;19916;-73
2021/04/17 07:54:37;;;;;;;;;;;;;;;9.87;49.75;102633.13;5048913;28;20027;-73
2021/04/17 07:57:04;;;;;;;;;;;;;;;9.99;49.48;102628.63;5043642;28;19991;-73
2021/04/17 07:59:29;;;;;;;;;;;;;;;10.07;49.50;102625.63;5045713;28;19917;-73
2021/04/17 08:01:54;;;;;;;;;;;;;;;10.09;49.26;102631.66;5043398;28;19927;-72
2021/04/17 08:04:24;;;;;;;;;;;;;;;10.13;49.28;102629.31;5071648;28;19948;-72
2021/04/17 08:06:49;;;;;;;;;;;;;;;10.17;49.11;102625.91;5045962;28;19999;-74
2021/04/17 08:09:14;;;;;;;;;;;;;;;10.19;48.99;102631.97;5045673;28;20016;-74
2021/04/17 08:11:40;;;;;;;;;;;;;;;10.19;49.04;102626.53;5070656;28;20332;-73
2021/04/17 08:14:05;;;;;;;;;;;;;;;10.23;48.77;102625.03;5070104;28;19920;-73
2021/04/17 08:16:30;;;;;;;;;;;;;;;10.21;48.74;102621.69;5044506;28;19959;-73
2021/04/17 08:18:55;;;;;;;;;;;;;;;10.21;48.31;102618.13;5076225;28;19966;-73
2021/04/17 08:21:21;;;;;;;;;;;;;;;10.37;48.22;102619.47;5049208;28;20290;-73
2021/04/17 08:23:47;;;;;;;;;;;;;;;10.48;47.34;102621.41;5033569;28;19912;-74
2021/04/17 08:26:12;;;;;;;;;;;;;;;10.62;47.18;102612.00;5050304;28;20334;-72
2021/04/17 08:28:41;;;;;;;;;;;;;;;10.80;46.43;102610.31;5047051;28;19958;-73
2021/04/17 08:31:19;;;;;;;;;;;;;;;10.88;45.86;102607.25;5047632;28;19932;-73
2021/04/17 08:33:44;;;;;;;;;;;;;;;10.95;45.71;102618.91;5041842;28;19912;-73
2021/04/17 08:36:10;;;;;;;;;;;;;;;11.04;45.31;102614.78;5041243;28;20289;-73
2021/04/17 08:38:35;;;;;;;;;;;;;;;11.13;44.92;102617.19;5070707;28;19912;-72
2021/04/17 08:41:00;;;;;;;;;;;;;;;11.23;44.77;102617.47;5045058;28;19913;-73
2021/04/17 08:43:27;;;;;;;;;;;;;;;11.38;44.51;102630.69;5083298;28;19986;-73
2021/04/17 08:45:58;;;;;;;;;;;;;;;11.50;44.28;102613.25;5049030;28;20016;-73
2021/04/17 08:48:53;;;;;;;;;;;;;;;11.66;44.23;102613.63;5049993;28;19916;-73
2021/04/17 08:51:21;;;;;;;;;;;;;;;11.75;43.93;102613.03;5048554;28;19929;-73
2021/04/17 08:53:47;;;;;;;;;;;;;;;11.93;43.89;102608.56;5048248;28;20004;-74
2021/04/17 08:56:12;;;;;;;;;;;;;;;11.88;43.39;102602.97;5052742;28;20008;-74
2021/04/17 08:58:37;;;;;;;;;;;;;;;11.96;43.31;102600.72;5047612;28;19975;-73
2021/04/17 09:01:06;;;;;;;;;;;;;;;12.18;43.04;102608.31;5051173;28;20386;-73
2021/04/17 09:03:39;;;;;;;;;;;;;;;12.46;42.76;102602.06;5073628;28;20312;-73
2021/04/17 09:06:05;;;;;;;;;;;;;;;12.65;42.57;102602.72;5052035;28;19908;-73
2021/04/17 09:08:30;;;;;;;;;;;;;;;12.81;42.34;102604.66;5047692;28;19920;-73
2021/04/17 09:10:55;;;;;;;;;;;;;;;12.92;42.04;102593.94;5045423;28;19913;-73
2021/04/17 09:13:21;;;;;;;;;;;;;;;12.99;41.85;102589.13;5077967;28;19963;-82
2021/04/17 09:15:56;;;;;;;;;;;;;;;13.00;41.45;102597.09;5052310;28;19912;-75
2021/04/17 09:18:36;;;;;;;;;;;;;;;12.94;41.21;102595.34;5047081;28;20231;-75
2021/04/17 09:21:08;;;;;;;;;;;;;;;12.93;41.18;102587.34;5050763;28;19919;-75
2021/04/17 09:23:36;;;;;;;;;;;;;;;12.92;40.92;102577.50;5052032;28;20297;-75
2021/04/17 09:26:02;;;;;;;;;;;;;;;12.86;40.76;102580.13;5053884;28;19912;-85
2021/04/17 09:28:34;;;;;;;;;;;;;;;12.88;40.97;102583.47;5048162;28;19917;-82
2021/04/17 09:30:59;;;;;;;;;;;;;;;12.98;40.81;102584.72;5056024;28;20469;-80
2021/04/17 09:33:25;;;;;;;;;;;;;;;13.10;40.71;102578.13;5052174;28;20012;-77
2021/04/17 09:35:50;;;;;;;;;;;;;;;13.20;40.68;102582.91;5054210;28;19913;-77
2021/04/17 09:38:16;;;;;;;;;;;;;;;13.29;40.59;102583.41;5052781;28;19948;-75
2021/04/17 09:40:42;;;;;;;;;;;;;;;13.39;40.31;102574.50;5053930;28;19913;-75
2021/04/17 09:43:28;;;;;;;;;;;;;;;13.51;40.32;102572.53;5051478;28;19999;-76
2021/04/17 09:45:54;;;;;;;;;;;;;;;13.65;40.06;102562.03;5053186;28;19923;-76
2021/04/17 09:48:21;;;;;;;;;;;;;;;13.77;39.85;102566.31;5048736;28;19947;-75
2021/04/17 09:50:48;;;;;;;;;;;;;;;13.87;39.69;102567.56;5049906;28;19917;-76
2021/04/17 09:53:14;;;;;;;;;;;;;;;13.84;39.59;102574.38;5078157;28;20388;-75
2021/04/17 09:55:47;;;;;;;;;;;;;;;13.80;39.66;102569.66;5050730;28;19930;-76
2021/04/17 09:58:13;;;;;;;;;;;;;;;13.76;39.63;102566.59;5047944;28;20385;-76
2021/04/17 10:00:38;;;;;;;;;;;;;;;13.82;39.56;102567.50;5050204;28;19913;-75
2021/04/17 10:03:04;;;;;;;;;;;;;;;13.71;39.24;102561.84;5049608;28;20271;-76
2021/04/17 10:05:32;;;;;;;;;;;;;;;13.62;39.13;102562.56;5054171;28;19913;-75
2021/04/17 10:07:58;;;;;;;;;;;;;;;13.56;39.22;102553.44;5043978;28;19917;-74
2021/04/17 10:10:24;;;;;;;;;;;;;;;13.56;39.23;102561.66;5037818;28;20174;-74
2021/04/17 10:12:50;;;;;;;;;;;;;;;13.74;39.19;102555.03;5045401;28;20366;-75
2021/04/17 10:15:16;;;;;;;;;;;;;;;13.86;38.94;102554.94;5052050;28;19927;-74
2021/04/17 10:17:41;;;;;;;;;;;;;;;14.08;38.91;102550.31;5048600;28;20023;-76
2021/04/17 10:20:07;;;;;;;;;;;;;;;14.35;38.74;102549.53;5052609;28;20306;-76
2021/04/17 10:22:32;;;;;;;;;;;;;;;14.46;38.10;102540.38;5051913;28;20003;-75
2021/04/17 10:24:58;;;;;;;;;;;;;;;14.52;38.03;102542.09;5045718;28;19982;-76
2021/04/17 10:27:23;;;;;;;;;;;;;;;14.61;38.04;102535.06;5036568;28;19915;-76
2021/04/17 10:29:50;;;;;;;;;;;;;;;14.71;37.94;102536.28;5079255;28;19920;-76
2021/04/17 10:32:18;;;;;;;;;;;;;;;14.83;37.84;102531.44;5052600;28;19916;-76
2021/04/17 10:34:43;;;;;;;;;;;;;;;15.01;37.64;102531.06;5050479;28;20289;-76
2021/04/17 10:37:16;;;;;;;;;;;;;;;15.19;37.35;102535.31;5054289;28;19912;-76
2021/04/17 10:40:00;;;;;;;;;;;;;;;15.34;37.17;102533.81;5053165;28;20355;-76
2021/04/17 10:42:25;;;;;;;;;;;;;;;15.50;37.09;102533.66;5051230;28;19913;-74
2021/04/17 10:44:51;;;;;;;;;;;;;;;15.67;36.82;102532.66;5078834;28;20302;-75
2021/04/17 10:47:16;;;;;;;;;;;;;;;15.88;36.80;102528.16;5049344;28;19963;-75
2021/04/17 10:49:42;;;;;;;;;;;;;;;16.09;36.37;102518.88;5048142;28;19952;-75
2021/04/17 10:52:08;;;;;;;;;;;;;;;16.22;36.17;102523.06;5050401;28;19921;-75
2021/04/17 10:54:49;;;;;;;;;;;;;;;16.21;35.50;102521.41;5052876;28;19913;-75
2021/04/17 10:57:14;;;;;;;;;;;;;;;16.16;35.82;102515.88;5053218;28;19966;-76
2021/04/17 10:59:59;;;;;;;;;;;;;;;16.10;35.58;102519.72;5052209;28;19917;-75
2021/04/17 11:02:24;;;;;;;;;;;;;;;16.06;35.44;102507.59;5081311;28;19956;-75
2021/04/17 11:04:49;;;;;;;;;;;;;;;16.02;35.00;102515.56;5051593;28;20325;-75
2021/04/17 11:07:14;;;;;;;;;;;;;;;16.23;35.08;102507.38;5045906;28;19909;-75
2021/04/17 11:09:46;;;;;;;;;;;;;;;16.37;34.46;102506.59;5072358;28;19913;-75
2021/04/17 11:12:21;;;;;;;;;;;;;;;16.37;34.23;102509.34;5049914;28;19920;-75
2021/04/17 11:14:46;;;;;;;;;;;;;;;16.21;34.49;102510.41;5042558;28;19913;-76
2021/04/17 11:17:12;;;;;;;;;;;;;;;16.15;34.58;102511.44;5048542;28;19913;-76
2021/04/17 11:19:37;;;;;;;;;;;;;;;16.20;34.38;102514.22;5049592;28;19969;-79
2021/04/17 11:22:06;;;;;;;;;;;;;;;16.11;34.30;102515.84;5049256;28;20011;-77
2021/04/17 11:24:32;;;;;;;;;;;;;;;16.09;34.47;102518.88;5050107;28;19920;-78
2021/04/17 11:26:57;;;;;;;;;;;;;;;16.03;34.32;102524.63;5049534;28;20031;-76
2021/04/17 11:29:22;;;;;;;;;;;;;;;16.00;34.47;102525.16;5048729;28;20003;-76
2021/04/17 11:31:47;;;;;;;;;;;;;;;16.02;34.42;102528.50;5042983;28;19921;-76
2021/04/17 11:34:13;;;;;;;;;;;;;;;15.98;34.42;102518.00;5033317;28;19932;-76
2021/04/17 11:36:38;;;;;;;;;;;;;;;16.24;34.18;102515.38;5040508;28;19916;-76
2021/04/17 11:39:03;;;;;;;;;;;;;;;16.31;33.79;102515.09;5036797;28;19913;-76
2021/04/17 11:41:28;;;;;;;;;;;;;;;16.32;33.96;102519.53;5043416;28;20355;-75
2021/04/17 11:43:54;;;;;;;;;;;;;;;16.30;33.94;102519.78;5036034;28;19914;-75
2021/04/17 11:46:19;;;;;;;;;;;;;;;16.30;33.64;102521.72;5049705;28;19913;-75
2021/04/17 11:48:45;;;;;;;;;;;;;;;16.22;33.74;102511.22;5040921;28;20003;-75
2021/04/17 11:51:10;;;;;;;;;;;;;;;16.21;33.80;102515.91;5033118;28;20393;-75
2021/04/17 11:53:36;;;;;;;;;;;;;;;16.15;33.86;102522.47;5043061;28;19920;-74
2021/04/17 11:56:02;;;;;;;;;;;;;;;16.18;33.84;102521.94;5049057;28;19909;-75
2021/04/17 11:58:28;;;;;;;;;;;;;;;16.27;33.88;102522.25;5041661;28;19913;-75
2021/04/17 12:00:53;;;;;;;;;;;;;;;16.40;33.66;102519.81;5037308;28;20039;-75
2021/04/17 12:03:23;;;;;;;;;;;;;;;16.51;33.67;102519.84;5050203;28;20027;-75
2021/04/17 12:05:48;;;;;;;;;;;;;;;16.65;33.54;102518.22;5049611;28;19916;-74
2021/04/17 12:08:14;;;;;;;;;;;;;;;16.84;33.46;102522.13;5036233;28;19909;-75
2021/04/17 12:10:39;;;;;;;;;;;;;;;17.13;33.35;102509.75;5048496;28;19923;-74
2021/04/17 12:13:06;;;;;;;;;;;;;;;17.48;32.87;102504.19;5038846;28;19909;-75
2021/04/17 12:15:31;;;;;;;;;;;;;;;17.68;32.33;102502.50;5041290;28;19956;-75
2021/04/17 12:17:56;;;;;;;;;;;;;;;18.01;32.21;102492.78;5040232;28;19944;-74
2021/04/17 12:20:21;;;;;;;;;;;;;;;18.17;31.53;102496.28;5081333;28;19919;-75
2021/04/17 12:22:47;;;;;;;;;;;;;;;18.10;31.36;102502.09;5042234;28;19912;-75
2021/04/17 12:25:12;;;;;;;;;;;;;;;17.97;31.56;102497.19;5041014;28;19966;-74
2021/04/17 12:27:37;;;;;;;;;;;;;;;17.80;31.16;102496.72;5040407;28;19952;-76
2021/04/17 12:30:04;;;;;;;;;;;;;;;17.66;31.32;102508.28;5033637;28;19967;-75
2021/04/17 12:32:29;;;;;;;;;;;;;;;17.69;31.42;102504.97;5032194;28;19967;-74
2021/04/17 12:34:55;;;;;;;;;;;;;;;17.86;31.46;102504.69;5040034;28;19913;-74
2021/04/17 12:37:20;;;;;;;;;;;;;;;18.31;31.12;102497.31;5034438;28;19961;-74